Flight Track Log - Related Links

Times and Time Zones

All times are in EDT time to prevent confusion due to time zone crossing. See the DAL3974 flight status page for this flight to view local times or setup timezone preferences in your user account.

Time Position Orientation Groundspeed Altitude Reporting Facility
EDT Latitude Longitude Course Direction KTS MPH feet Rate Location/Type
Wed 08:58:24 PM 42.1994 -83.3553 71° East 167 192 1,200  Level Cleveland Center
Wed 08:59:13 PM 42.1581 -83.3450 170° South 224 258 2,400 1,673 Climbing Cleveland Center
Wed 09:00:08 PM 42.0978 -83.3397 176° South 258 297 4,100 2,410 Climbing Cleveland Center
Wed 09:01:00 PM 42.2884 -82.8914 75° East  Level FlightAware Approximate
Wed 09:01:15 PM 42.0300 -83.2919 152° Southeast 279 321 7,300  Level Cleveland Center
Wed 09:01:58 PM 42.0422 -83.2169 78° East 266 306 8,800 2,097 Climbing Cleveland Center
Wed 09:02:00 PM 42.3178 -82.7384 82° East  Level FlightAware Approximate
Wed 09:02:58 PM 42.0775 -83.1317 61° Northeast 293 337 10,900  Level Cleveland Center
Wed 09:03:00 PM 42.3337 -82.5817 71° East  Level FlightAware Approximate
Wed 09:03:58 PM 42.1194 -83.0297 61° Northeast 298 343 12,200  Level Cleveland Center
Wed 09:04:58 PM 42.1675 -82.9225 59° Northeast 308 354 13,800 1,300 Climbing Cleveland Center
Wed 09:05:58 PM 42.2156 -82.8092 60° Northeast 326 375 14,800 1,200 Climbing Cleveland Center
Wed 09:06:58 PM 42.2678 -82.6875 60° Northeast 345 397 16,200 1,300 Climbing Cleveland Center
Wed 09:07:58 PM 42.3181 -82.5683 60° Northeast 356 410 17,400 950 Climbing Cleveland Center
Wed 09:08:58 PM 42.3639 -82.4378 65° Northeast 363 418 18,100 850 Climbing Cleveland Center
Wed 09:09:58 PM 42.3600 -82.2917 92° East 363 418 19,100 1,000 Climbing Cleveland Center
Wed 09:10:58 PM 42.3536 -82.1453 93° East 374 430 20,100 1,000 Climbing Cleveland Center
Wed 09:11:58 PM 42.3494 -81.9964 92° East 389 448 21,100 1,000 Climbing Cleveland Center
Wed 09:12:58 PM 42.3428 -81.8444 93° East 396 456 22,100 1,000 Climbing Cleveland Center
Wed 09:13:58 PM 42.3361 -81.6956 93° East 402 463 23,100 1,000 Climbing Cleveland Center
Wed 09:14:58 PM 42.3292 -81.5436 93° East 402 463 24,100 1,050 Climbing Cleveland Center
Wed 09:15:58 PM 42.3239 -81.3947 93° East 397 457 25,200 850 Climbing Cleveland Center
Wed 09:16:58 PM 42.3144 -81.2458 95° East 397 457 25,800 450 Climbing Cleveland Center
Wed 09:17:58 PM 42.3069 -81.0914 94° East 402 463 26,100 350 Climbing Cleveland Center
Wed 09:18:58 PM 42.2992 -80.9481 94° East 417 480 26,500 450 Climbing Cleveland Center
Wed 09:19:58 PM 42.2892 -80.7853 95° East 430 495 27,000 500 Climbing Cleveland Center
Wed 09:20:58 PM 42.2831 -80.6225 93° East 430 495 27,500 500 Climbing Cleveland Center
Wed 09:21:58 PM 42.2975 -80.4653 83° East 425 489 28,000 500 Climbing Cleveland Center
Wed 09:22:58 PM 42.3139 -80.3053 82° East 425 489 28,500 500 Climbing Cleveland Center
Wed 09:23:58 PM 42.3281 -80.1422 83° East 433 498 29,000 250 Climbing Cleveland Center
Wed 09:24:58 PM 42.3461 -79.9650 82° East 433 498 29,000  Level Cleveland Center
Wed 09:25:58 PM 42.3617 -79.8019 83° East 428 493 29,000  Level Cleveland Center
Wed 09:26:58 PM 42.3750 -79.6333 84° East 440 506 29,000  Level Cleveland Center
Wed 09:27:58 PM 42.3903 -79.4756 82° East 452 520 29,000  Level Cleveland Center
Wed 09:28:58 PM 42.4031 -79.3067 84° East 459 528 29,000  Level Cleveland Center
Wed 09:29:58 PM 42.4197 -79.1319 83° East 465 535 29,000  Level Cleveland Center
Wed 09:30:58 PM 42.4342 -78.9572 84° East 465 535 29,000  Level Cleveland Center
Wed 09:31:58 PM 42.4483 -78.7822 84° East 465 535 29,000  Level Cleveland Center
Wed 09:32:58 PM 42.4642 -78.6072 83° East 465 535 29,000  Level Cleveland Center
Wed 09:33:58 PM 42.4778 -78.4294 84° East 465 535 29,000  Level Cleveland Center
Wed 09:34:58 PM 42.4931 -78.2544 83° East 465 535 29,000  Level Cleveland Center
Wed 09:35:58 PM 42.5039 -78.0767 85° East 465 535 29,000  Level Cleveland Center
Wed 09:36:58 PM 42.5167 -77.9014 84° East 465 535 29,000  Level Cleveland Center
Wed 09:37:58 PM 42.5311 -77.7233 84° East 465 535 29,000  Level Cleveland Center
Wed 09:38:58 PM 42.5433 -77.5481 85° East 465 535 29,000  Level Cleveland Center
Wed 09:39:58 PM 42.5567 -77.3500 85° East 474 545 29,000  Level Cleveland Center
Wed 09:40:58 PM 42.5703 -77.1686 84° East 479 551 29,000  Level Cleveland Center
Wed 09:43:04 PM 42.5936 -76.8122 85° East 478 550 29,000  Level Boston Center
Wed 09:44:04 PM 42.6044 -76.6353 85° East 478 550 29,000  Level Boston Center
Wed 09:45:04 PM 42.6169 -76.4583 84° East 478 550 29,000  Level Boston Center
Wed 09:46:04 PM 42.6253 -76.2781 86° East 473 544 29,000  Level Boston Center
Wed 09:47:04 PM 42.6381 -76.0842 85° East 473 544 29,000  Level Boston Center
Wed 09:48:04 PM 42.6444 -75.9406 86° East 473 544 29,000  Level Boston Center
Wed 09:49:04 PM 42.6572 -75.7236 85° East 473 544 29,000  Level Boston Center
Wed 09:50:04 PM 42.6664 -75.5492 86° East 473 544 29,000  Level Boston Center
Wed 09:51:04 PM 42.6775 -75.3689 85° East 473 544 29,000  Level Boston Center
Wed 09:52:04 PM 42.6839 -75.1883 87° East 479 551 29,000  Level Boston Center
Wed 09:53:04 PM 42.6903 -75.0106 87° East 473 544 29,000  Level Boston Center
Wed 09:54:04 PM 42.6692 -74.8319 99° East 473 544 29,000  Level Boston Center
Wed 09:55:04 PM 42.6436 -74.6558 101° East 478 550 29,000 -750 Level Boston Center
Wed 09:56:04 PM 42.6197 -74.4800 100° East 473 544 27,500 -1,500 Descending Boston Center
Wed 09:57:04 PM 42.6039 -74.3047 97° East 468 539 26,000 -1,500 Descending Boston Center
Wed 09:58:04 PM 42.6256 -74.1303 80° East 460 529 24,500 -1,500 Descending Boston Center
Wed 09:59:04 PM 42.6425 -73.9500 83° East 467 537 23,000 -1,500 Descending Boston Center
Wed 10:00:04 PM 42.6592 -73.7839 82° East 482 555 21,500 -1,400 Descending Boston Center
Wed 10:01:04 PM 42.6778 -73.6261 81° East 482 555 20,200 -1,250 Descending Boston Center
Wed 10:02:04 PM 42.6942 -73.4147 84° East 477 549 19,000 -600 Descending Boston Center
Wed 10:03:04 PM 42.7103 -73.2453 83° East 458 527 19,000  Level Boston Center
Wed 10:04:04 PM 42.7258 -73.0817 83° East 447 514 19,000  Level Boston Center
Wed 10:05:04 PM 42.7411 -72.9236 82° East 452 520 19,000  Level Boston Center
Wed 10:06:04 PM 42.7564 -72.7511 83° East 452 520 19,000 -1,550 Level Boston Center
Wed 10:07:04 PM 42.7714 -72.5872 83° East 445 512 15,900 -2,850 Descending Boston Center
Wed 10:08:04 PM 42.7839 -72.4428 83° East 420 483 13,300 -2,500 Descending Boston Center
Wed 10:09:04 PM 42.7942 -72.3014 84° East 391 450 10,900 -1,850 Descending Boston Center
Wed 10:10:04 PM 42.8169 -72.1656 77° East 344 396 9,600 -950 Descending Boston Center
Wed 10:11:04 PM 42.8333 -72.0608 78° East 315 362 9,000 -300 Descending Boston Center
Wed 10:12:04 PM 42.8536 -71.9331 78° East 310 357 9,000  Level Boston Center
Wed 10:13:04 PM 42.8844 -71.8422 65° Northeast 298 343 9,000 -1,000 Level Boston Center
Wed 10:14:04 PM 42.9319 -71.7481 55° Northeast 277 319 7,000 -1,950 Descending Boston Center
Wed 10:15:04 PM 42.9772 -71.6767 49° Northeast 272 313 5,100 -1,800 Descending Boston Center
Wed 10:16:04 PM 43.0308 -71.5964 48° Northeast 262 302 3,400 -1,700 Descending Boston Center

Login

Don't have an account? Register now (free) for customized features, flight alerts, and more!